createdAt,value
2018-11-10T00:00:47.353Z,0
2018-11-10T00:01:55.995Z,0
2018-11-10T00:03:04.646Z,0
2018-11-10T00:04:13.313Z,0
2018-11-10T00:05:21.915Z,0
2018-11-10T00:06:30.555Z,0
2018-11-10T00:07:39.192Z,0
2018-11-10T00:08:47.838Z,0
2018-11-10T00:09:56.480Z,0
2018-11-10T00:11:05.121Z,0
2018-11-10T00:12:14.024Z,0
2018-11-10T00:13:22.671Z,0
2018-11-10T00:14:31.307Z,0
2018-11-10T00:15:39.949Z,0
2018-11-10T00:16:48.852Z,0
2018-11-10T00:17:57.497Z,0
2018-11-10T00:19:06.135Z,0
2018-11-10T00:20:14.777Z,0
2018-11-10T00:21:23.412Z,0
2018-11-10T00:22:32.055Z,0
2018-11-10T00:23:40.963Z,0
2018-11-10T00:24:49.604Z,0
2018-11-10T00:25:58.256Z,0
2018-11-10T00:27:06.880Z,0
2018-11-10T00:28:15.522Z,0
2018-11-10T00:29:24.158Z,0
2018-11-10T00:30:32.804Z,0
2018-11-10T00:31:41.439Z,0
2018-11-10T00:32:50.344Z,0
2018-11-10T00:33:58.984Z,0
2018-11-10T00:35:07.628Z,0
2018-11-10T00:36:16.260Z,0
2018-11-10T00:37:24.900Z,0
2018-11-10T00:38:33.542Z,0
2018-11-10T00:39:42.191Z,0
2018-11-10T00:40:50.827Z,0
2018-11-10T00:41:59.725Z,0
2018-11-10T00:43:08.364Z,0
2018-11-10T00:44:17.005Z,0
2018-11-10T00:45:25.647Z,0
2018-11-10T00:46:34.290Z,0
2018-11-10T00:47:42.928Z,0
2018-11-10T00:48:51.565Z,0
2018-11-10T00:50:00.206Z,0
2018-11-10T00:51:08.848Z,0
2018-11-10T00:52:17.484Z,0
2018-11-10T00:53:26.377Z,0
2018-11-10T00:54:35.287Z,0
2018-11-10T00:55:43.926Z,0
2018-11-10T00:56:52.569Z,0
2018-11-10T00:58:01.199Z,0
2018-11-10T00:59:09.840Z,0
2018-11-10T01:00:18.486Z,0
2018-11-10T01:01:27.132Z,0
2018-11-10T01:02:35.768Z,0
2018-11-10T01:03:44.401Z,0
2018-11-10T01:04:53.575Z,0
2018-11-10T01:06:02.210Z,0
2018-11-10T01:07:10.859Z,0
2018-11-10T01:08:19.489Z,0
2018-11-10T01:09:28.131Z,0
2018-11-10T01:10:36.766Z,0
2018-11-10T01:11:45.414Z,0
2018-11-10T01:12:54.585Z,0
2018-11-10T01:14:03.229Z,0
2018-11-10T01:15:11.874Z,0
2018-11-10T01:16:20.786Z,0
2018-11-10T01:17:29.425Z,0
2018-11-10T01:18:38.060Z,0
2018-11-10T01:19:46.695Z,0
2018-11-10T01:20:55.342Z,0
2018-11-10T01:22:04.249Z,0
2018-11-10T01:23:12.884Z,0
2018-11-10T01:24:21.530Z,0
2018-11-10T01:25:30.161Z,0
2018-11-10T01:26:39.082Z,0
2018-11-10T01:27:47.745Z,0
2018-11-10T01:28:56.635Z,0
2018-11-10T01:30:05.266Z,0
2018-11-10T01:31:14.176Z,0
2018-11-10T01:32:23.079Z,0
2018-11-10T01:33:31.721Z,0
2018-11-10T01:34:40.349Z,0
2018-11-10T01:35:48.995Z,0
2018-11-10T01:36:57.636Z,0
2018-11-10T01:38:06.280Z,0
2018-11-10T01:39:14.919Z,0
2018-11-10T01:40:23.553Z,0
2018-11-10T01:41:32.459Z,0
2018-11-10T01:42:41.096Z,0
2018-11-10T01:43:50.010Z,0
2018-11-10T01:44:58.640Z,0
2018-11-10T01:46:07.285Z,0
2018-11-10T01:47:15.921Z,0
2018-11-10T01:48:24.570Z,0
2018-11-10T01:49:33.200Z,0
2018-11-10T01:50:41.843Z,0
2018-11-10T01:51:50.482Z,0
2018-11-10T01:52:59.395Z,0
2018-11-10T01:54:08.032Z,0
2018-11-10T01:55:16.672Z,0
2018-11-10T01:56:25.584Z,0
2018-11-10T01:57:34.218Z,0
2018-11-10T01:58:42.864Z,0
2018-11-10T01:59:51.504Z,0
2018-11-10T02:01:00.148Z,0
2018-11-10T02:02:09.048Z,0
2018-11-10T02:03:17.957Z,0
2018-11-10T02:04:26.861Z,0
2018-11-10T02:05:36.023Z,0
2018-11-10T02:06:45.142Z,0
2018-11-10T02:07:53.658Z,0
2018-11-10T02:09:02.566Z,0
2018-11-10T02:10:11.471Z,0
2018-11-10T02:11:20.105Z,0
2018-11-10T02:12:28.747Z,0
2018-11-10T02:13:37.389Z,0
2018-11-10T02:14:46.033Z,0
2018-11-10T02:15:54.674Z,0
2018-11-10T02:17:03.309Z,0
2018-11-10T02:18:11.950Z,0
2018-11-10T02:19:20.592Z,0
2018-11-10T02:20:29.237Z,0
2018-11-10T02:21:37.872Z,0
2018-11-10T02:22:46.513Z,0
2018-11-10T02:23:55.148Z,0
2018-11-10T02:25:04.346Z,0
2018-11-10T02:26:13.246Z,0
2018-11-10T02:27:22.159Z,0
2018-11-10T02:28:30.796Z,0
2018-11-10T02:29:39.442Z,0
2018-11-10T02:30:48.090Z,0
2018-11-10T02:31:56.727Z,0
2018-11-10T02:33:05.365Z,0
2018-11-10T02:34:14.007Z,0
2018-11-10T02:35:22.651Z,0
2018-11-10T02:36:31.578Z,0
2018-11-10T02:37:40.226Z,0
2018-11-10T02:38:49.257Z,0
2018-11-10T02:39:57.791Z,0
2018-11-10T02:41:06.682Z,0
2018-11-10T02:42:15.325Z,0
2018-11-10T02:43:23.960Z,0
2018-11-10T02:44:32.875Z,0
2018-11-10T02:45:41.773Z,0
2018-11-10T02:46:50.417Z,0
2018-11-10T02:47:59.055Z,0
2018-11-10T02:49:08.047Z,0
2018-11-10T02:50:16.688Z,0
2018-11-10T02:51:25.334Z,0
2018-11-10T02:52:34.561Z,0
2018-11-10T02:53:43.137Z,0
2018-11-10T02:54:51.782Z,0
2018-11-10T02:56:00.422Z,0
2018-11-10T02:57:09.067Z,0
2018-11-10T02:58:17.704Z,0
2018-11-10T02:59:26.614Z,0
2018-11-10T03:00:35.251Z,0
2018-11-10T03:01:43.895Z,0
2018-11-10T03:02:52.529Z,0
2018-11-10T03:04:01.432Z,0
2018-11-10T03:05:10.069Z,0
2018-11-10T03:06:18.717Z,0
2018-11-10T03:07:27.361Z,0
2018-11-10T03:08:35.991Z,0
2018-11-10T03:09:44.890Z,0
2018-11-10T03:10:53.647Z,0
2018-11-10T03:12:02.440Z,0
2018-11-10T03:13:11.338Z,0
2018-11-10T03:14:19.984Z,0
2018-11-10T03:15:28.615Z,0
2018-11-10T03:16:37.265Z,0
2018-11-10T03:17:45.901Z,0
2018-11-10T03:18:54.545Z,0
2018-11-10T03:20:03.176Z,0
2018-11-10T03:21:12.089Z,0
2018-11-10T03:22:20.727Z,0
2018-11-10T03:23:29.369Z,0
2018-11-10T03:24:38.000Z,0
2018-11-10T03:25:46.644Z,0
2018-11-10T03:26:55.286Z,0
2018-11-10T03:28:03.928Z,0
2018-11-10T03:29:12.571Z,0
2018-11-10T03:30:21.206Z,0
2018-11-10T03:31:30.208Z,0
2018-11-10T03:32:39.185Z,0
2018-11-10T03:33:48.125Z,0
2018-11-10T03:34:56.829Z,0
2018-11-10T03:36:05.473Z,0
2018-11-10T03:37:14.376Z,0
2018-11-10T03:38:23.284Z,0
2018-11-10T03:39:31.914Z,0
2018-11-10T03:40:40.556Z,0
2018-11-10T03:41:49.458Z,0
2018-11-10T03:42:58.110Z,0
2018-11-10T03:44:06.751Z,0
2018-11-10T03:45:15.387Z,0
2018-11-10T03:46:24.028Z,0
2018-11-10T03:47:32.664Z,0
2018-11-10T03:48:41.339Z,0
2018-11-10T03:49:49.955Z,0
2018-11-10T03:50:58.848Z,0
2018-11-10T03:52:07.501Z,0
2018-11-10T03:53:16.129Z,0
2018-11-10T03:54:24.779Z,0
2018-11-10T03:55:33.412Z,0
2018-11-10T03:56:42.061Z,0
2018-11-10T03:57:51.228Z,0
2018-11-10T03:59:00.129Z,0
2018-11-10T04:00:08.772Z,0
2018-11-10T04:01:17.419Z,0
2018-11-10T04:02:26.060Z,0
2018-11-10T04:03:34.696Z,0
2018-11-10T04:04:43.336Z,0
2018-11-10T04:05:51.973Z,0
2018-11-10T04:07:00.621Z,0
2018-11-10T04:08:09.257Z,0
2018-11-10T04:09:17.902Z,0
2018-11-10T04:10:26.790Z,0
2018-11-10T04:11:35.439Z,0
2018-11-10T04:12:44.340Z,0
2018-11-10T04:13:52.983Z,0
2018-11-10T04:15:01.621Z,0
2018-11-10T04:16:10.533Z,0
2018-11-10T04:17:19.168Z,0
2018-11-10T04:18:27.810Z,0
2018-11-10T04:19:36.442Z,0
2018-11-10T04:20:45.084Z,0
2018-11-10T04:21:53.727Z,0
2018-11-10T04:23:02.372Z,0
2018-11-10T04:24:11.011Z,0
2018-11-10T04:25:19.644Z,0
2018-11-10T04:26:28.553Z,0
2018-11-10T04:27:37.185Z,0
2018-11-10T04:28:45.833Z,0
2018-11-10T04:29:54.469Z,0
2018-11-10T04:31:03.113Z,0
2018-11-10T04:32:11.749Z,0
2018-11-10T04:33:20.938Z,0
2018-11-10T04:34:29.849Z,0
2018-11-10T04:35:38.750Z,0
2018-11-10T04:36:47.388Z,0
2018-11-10T04:37:56.039Z,0
2018-11-10T04:39:04.679Z,0
2018-11-10T04:40:13.313Z,0
2018-11-10T04:41:21.948Z,0
2018-11-10T04:42:30.591Z,0
2018-11-10T04:43:39.240Z,0
2018-11-10T04:44:47.876Z,0
2018-11-10T04:45:56.519Z,0
2018-11-10T04:47:05.149Z,0
2018-11-10T04:48:13.798Z,0
2018-11-10T04:49:22.436Z,0
2018-11-10T04:50:31.079Z,0
2018-11-10T04:51:39.971Z,0
2018-11-10T04:52:48.879Z,0
2018-11-10T04:53:57.779Z,0
2018-11-10T04:55:06.424Z,0
2018-11-10T04:56:15.055Z,0
2018-11-10T04:57:23.696Z,0
2018-11-10T04:58:32.337Z,0
2018-11-10T04:59:40.987Z,0
2018-11-10T05:00:49.625Z,0
2018-11-10T05:01:58.530Z,0
2018-11-10T05:03:07.168Z,0
2018-11-10T05:04:15.810Z,0
2018-11-10T05:05:24.452Z,0
2018-11-10T05:06:33.088Z,0
2018-11-10T05:07:41.994Z,0
2018-11-10T05:08:50.635Z,0
2018-11-10T05:09:59.551Z,0
2018-11-10T05:11:08.188Z,0
2018-11-10T05:12:16.827Z,0
2018-11-10T05:13:25.464Z,0
2018-11-10T05:14:34.112Z,0
2018-11-10T05:15:42.749Z,0
2018-11-10T05:16:51.397Z,0
2018-11-10T05:18:00.034Z,0
2018-11-10T05:19:08.937Z,0
2018-11-10T05:20:17.584Z,0
2018-11-10T05:21:26.489Z,0
2018-11-10T05:22:35.128Z,0
2018-11-10T05:23:44.292Z,0
2018-11-10T05:24:52.939Z,0
2018-11-10T05:26:01.578Z,0
2018-11-10T05:27:10.217Z,0
2018-11-10T05:28:18.862Z,0
2018-11-10T05:29:27.765Z,0
2018-11-10T05:30:36.672Z,0
2018-11-10T05:31:45.313Z,0
2018-11-10T05:32:53.962Z,0
2018-11-10T05:34:02.598Z,0
2018-11-10T05:35:11.239Z,0
2018-11-10T05:36:20.147Z,0
2018-11-10T05:37:28.790Z,0
2018-11-10T05:38:37.428Z,0
2018-11-10T05:39:46.328Z,0
2018-11-10T05:40:54.968Z,0
2018-11-10T05:42:03.613Z,0
2018-11-10T05:43:12.249Z,0
2018-11-10T05:44:20.894Z,0
2018-11-10T05:45:29.537Z,0
2018-11-10T05:46:38.177Z,0
2018-11-10T05:47:46.815Z,0
2018-11-10T05:48:55.458Z,0
2018-11-10T05:50:04.096Z,0
2018-11-10T05:51:12.746Z,0
2018-11-10T05:52:21.381Z,0
2018-11-10T05:53:30.021Z,0
2018-11-10T05:54:38.663Z,0
2018-11-10T05:55:47.302Z,0
2018-11-10T05:56:56.300Z,0
2018-11-10T05:58:04.885Z,0
2018-11-10T05:59:13.531Z,0
2018-11-10T06:00:22.169Z,0
2018-11-10T06:01:31.078Z,0
2018-11-10T06:02:39.720Z,0
2018-11-10T06:03:48.361Z,0
2018-11-10T06:04:57.262Z,0
2018-11-10T06:06:05.911Z,0
2018-11-10T06:07:14.808Z,0
2018-11-10T06:08:23.719Z,0
2018-11-10T06:09:32.427Z,0
2018-11-10T06:10:40.998Z,0
2018-11-10T06:11:49.636Z,0
2018-11-10T06:12:58.609Z,0
2018-11-10T06:14:07.253Z,0
2018-11-10T06:15:15.892Z,4
2018-11-10T06:16:24.539Z,4
2018-11-10T06:17:33.445Z,0
2018-11-10T06:18:42.097Z,0
2018-11-10T06:19:50.992Z,0
2018-11-10T06:20:59.633Z,4
2018-11-10T06:22:08.542Z,4
2018-11-10T06:23:17.444Z,4
2018-11-10T06:24:26.080Z,8
2018-11-10T06:25:34.724Z,4
2018-11-10T06:26:43.630Z,8
2018-11-10T06:27:52.275Z,8
2018-11-10T06:29:00.915Z,8
2018-11-10T06:30:09.568Z,8
2018-11-10T06:31:18.206Z,12
2018-11-10T06:32:27.139Z,12
2018-11-10T06:33:35.767Z,8
2018-11-10T06:34:44.407Z,12
2018-11-10T06:35:53.055Z,16
2018-11-10T06:37:01.688Z,16
2018-11-10T06:38:10.334Z,20
2018-11-10T06:39:18.976Z,20
2018-11-10T06:40:27.884Z,24
2018-11-10T06:41:36.523Z,28
2018-11-10T06:42:45.167Z,28
2018-11-10T06:43:53.807Z,32
2018-11-10T06:45:02.453Z,36
2018-11-10T06:46:11.087Z,40
2018-11-10T06:47:19.732Z,44
2018-11-10T06:48:28.380Z,48
2018-11-10T06:49:37.021Z,52
2018-11-10T06:50:45.929Z,60
2018-11-10T06:51:54.559Z,60
2018-11-10T06:53:03.279Z,64
2018-11-10T06:54:11.841Z,64
2018-11-10T06:55:20.494Z,60
2018-11-10T06:56:29.131Z,64
2018-11-10T06:57:37.770Z,64
2018-11-10T06:58:46.407Z,68
2018-11-10T06:59:55.057Z,76
2018-11-10T07:01:03.689Z,80
2018-11-10T07:02:12.330Z,88
2018-11-10T07:03:21.031Z,88
2018-11-10T07:04:29.628Z,92
2018-11-10T07:05:38.266Z,92
2018-11-10T07:06:46.902Z,92
2018-11-10T07:07:55.541Z,100
2018-11-10T07:09:04.183Z,112
2018-11-10T07:10:12.832Z,136
2018-11-10T07:11:21.729Z,160
2018-11-10T07:12:30.638Z,192
2018-11-10T07:13:39.272Z,224
2018-11-10T07:14:47.921Z,248
2018-11-10T07:15:56.572Z,272
2018-11-10T07:17:05.204Z,292
2018-11-10T07:18:13.952Z,304
2018-11-10T07:19:22.752Z,316
2018-11-10T07:20:31.393Z,328
2018-11-10T07:21:40.301Z,344
2018-11-10T07:22:48.933Z,368
2018-11-10T07:23:57.575Z,388
2018-11-10T07:25:07.988Z,384
2018-11-10T07:26:16.616Z,368
2018-11-10T07:27:25.523Z,368
2018-11-10T07:28:34.155Z,384
2018-11-10T07:29:43.326Z,396
2018-11-10T07:30:51.963Z,408
2018-11-10T07:32:01.015Z,404
2018-11-10T07:33:09.597Z,396
2018-11-10T07:34:18.506Z,396
2018-11-10T07:35:27.145Z,392
2018-11-10T07:36:35.792Z,388
2018-11-10T07:37:44.428Z,380
2018-11-10T07:38:53.070Z,352
2018-11-10T07:40:01.709Z,332
2018-11-10T07:41:10.360Z,340
2018-11-10T07:42:19.008Z,356
2018-11-10T07:43:27.642Z,388
2018-11-10T07:44:36.287Z,436
2018-11-10T07:45:44.932Z,484
2018-11-10T07:46:53.563Z,504
2018-11-10T07:48:02.213Z,520
2018-11-10T07:49:11.184Z,496
2018-11-10T07:50:19.777Z,448
2018-11-10T07:51:28.421Z,448
2018-11-10T07:52:37.066Z,492
2018-11-10T07:53:45.702Z,552
2018-11-10T07:54:54.364Z,584
2018-11-10T07:56:03.266Z,600
2018-11-10T07:57:11.904Z,612
2018-11-10T07:58:20.544Z,608
2018-11-10T07:59:29.464Z,588
2018-11-10T08:00:38.103Z,612
2018-11-10T08:01:47.004Z,620
2018-11-10T08:02:55.643Z,624
2018-11-10T08:04:04.292Z,628
2018-11-10T08:05:12.943Z,656
2018-11-10T08:06:21.580Z,668
2018-11-10T08:07:30.226Z,664
2018-11-10T08:08:38.862Z,640
2018-11-10T08:09:47.511Z,632
2018-11-10T08:10:56.146Z,648
2018-11-10T08:12:04.794Z,676
2018-11-10T08:13:13.689Z,680
2018-11-10T08:14:22.338Z,628
2018-11-10T08:15:30.980Z,620
2018-11-10T08:16:39.620Z,640
2018-11-10T08:17:48.255Z,668
2018-11-10T08:18:56.897Z,696
2018-11-10T08:20:05.542Z,700
2018-11-10T08:21:14.186Z,716
2018-11-10T08:22:22.834Z,732
2018-11-10T08:23:31.466Z,700
2018-11-10T08:24:40.110Z,696
2018-11-10T08:25:48.747Z,708
2018-11-10T08:26:57.400Z,688
2018-11-10T08:28:06.297Z,640
2018-11-10T08:29:14.945Z,628
2018-11-10T08:30:23.851Z,648
2018-11-10T08:31:32.767Z,708
2018-11-10T08:32:41.397Z,720
2018-11-10T08:33:50.041Z,724
2018-11-10T08:34:58.677Z,716
2018-11-10T08:36:07.328Z,728
2018-11-10T08:37:15.961Z,752
2018-11-10T08:38:24.600Z,768
2018-11-10T08:39:33.502Z,752
2018-11-10T08:40:42.139Z,692
2018-11-10T08:41:50.790Z,652
2018-11-10T08:42:59.427Z,608
2018-11-10T08:44:08.337Z,568
2018-11-10T08:45:16.977Z,532
2018-11-10T08:46:25.623Z,524
2018-11-10T08:47:34.530Z,512
2018-11-10T08:48:43.172Z,492
2018-11-10T08:49:51.808Z,492
2018-11-10T08:51:00.721Z,488
2018-11-10T08:52:09.360Z,504
2018-11-10T08:53:18.005Z,536
2018-11-10T08:54:26.905Z,588
2018-11-10T08:55:35.552Z,580
2018-11-10T08:56:44.185Z,572
2018-11-10T08:57:53.103Z,588
2018-11-10T08:59:02.029Z,600
2018-11-10T09:00:10.654Z,604
2018-11-10T09:01:19.296Z,600
2018-11-10T09:02:27.936Z,620
2018-11-10T09:03:36.585Z,632
2018-11-10T09:04:45.484Z,648
2018-11-10T09:05:54.128Z,684
2018-11-10T09:07:02.769Z,700
2018-11-10T09:08:11.414Z,708
2018-11-10T09:09:20.052Z,740
2018-11-10T09:10:28.957Z,796
2018-11-10T09:11:37.601Z,860
2018-11-10T09:12:46.249Z,880
2018-11-10T09:13:54.887Z,920
2018-11-10T09:15:03.597Z,888
2018-11-10T09:16:12.169Z,860
2018-11-10T09:17:20.813Z,876
2018-11-10T09:18:29.457Z,924
2018-11-10T09:19:38.102Z,928
2018-11-10T09:20:46.742Z,880
2018-11-10T09:21:55.379Z,884
2018-11-10T09:23:04.024Z,928
2018-11-10T09:24:12.668Z,940
2018-11-10T09:25:21.312Z,964
2018-11-10T09:26:30.220Z,940
2018-11-10T09:27:39.133Z,952
2018-11-10T09:28:48.031Z,1020
2018-11-10T09:29:56.673Z,1040
2018-11-10T09:31:05.872Z,1092
2018-11-10T09:32:14.727Z,1124
2018-11-10T09:33:23.368Z,1192
2018-11-10T09:34:32.011Z,1184
2018-11-10T09:35:40.657Z,1288
2018-11-10T09:36:49.565Z,1292
2018-11-10T09:37:58.471Z,1240
2018-11-10T09:39:07.124Z,1248
2018-11-10T09:40:15.773Z,1252
2018-11-10T09:41:24.402Z,1200
2018-11-10T09:42:33.210Z,1048
2018-11-10T09:43:42.269Z,872
2018-11-10T09:44:50.916Z,916
2018-11-10T09:45:59.705Z,976
2018-11-10T09:47:08.639Z,1020
2018-11-10T09:48:17.279Z,1012
2018-11-10T09:49:25.938Z,988
2018-11-10T09:50:34.634Z,1024
2018-11-10T09:51:43.694Z,1068
2018-11-10T09:52:52.334Z,1092
2018-11-10T09:54:02.239Z,1080
2018-11-10T09:55:10.887Z,1040
2018-11-10T09:56:19.524Z,1072
2018-11-10T09:57:28.169Z,1192
2018-11-10T09:58:36.801Z,1284
2018-11-10T09:59:45.452Z,1208
2018-11-10T10:00:54.157Z,1176
2018-11-10T10:02:03.055Z,1136
2018-11-10T10:03:11.453Z,1160
2018-11-10T10:04:20.172Z,1144
2018-11-10T10:05:28.835Z,1388
2018-11-10T10:06:37.636Z,1812
2018-11-10T10:07:46.352Z,1976
2018-11-10T10:08:55.627Z,2212
2018-11-10T10:10:04.116Z,2344
2018-11-10T10:11:12.761Z,2256
2018-11-10T10:12:21.407Z,2076
2018-11-10T10:13:30.048Z,2024
2018-11-10T10:14:38.694Z,2004
2018-11-10T10:15:47.340Z,1916
2018-11-10T10:16:56.548Z,1696
2018-11-10T10:18:05.208Z,1504
2018-11-10T10:19:13.858Z,1492
2018-11-10T10:20:22.501Z,1632
2018-11-10T10:21:31.411Z,1760
2018-11-10T10:22:40.043Z,1896
2018-11-10T10:23:48.955Z,2068
2018-11-10T10:24:57.861Z,2264
2018-11-10T10:26:06.513Z,2384
2018-11-10T10:27:15.428Z,2452
2018-11-10T10:28:24.498Z,2404
2018-11-10T10:29:33.073Z,2336
2018-11-10T10:30:41.714Z,2196
2018-11-10T10:31:50.371Z,2252
2018-11-10T10:32:59.010Z,2324
2018-11-10T10:34:07.680Z,2172
2018-11-10T10:35:16.789Z,1976
2018-11-10T10:36:25.256Z,1756
2018-11-10T10:37:34.182Z,1516
2018-11-10T10:38:42.893Z,1428
2018-11-10T10:39:51.527Z,1548
2018-11-10T10:41:00.174Z,1556
2018-11-10T10:42:08.817Z,1576
2018-11-10T10:43:17.462Z,1576
2018-11-10T10:44:26.360Z,1580
2018-11-10T10:45:35.005Z,1400
2018-11-10T10:46:43.650Z,1288
2018-11-10T10:47:52.292Z,1240
2018-11-10T10:49:01.757Z,1104
2018-11-10T10:50:10.436Z,1044
2018-11-10T10:51:19.342Z,956
2018-11-10T10:52:27.983Z,932
2018-11-10T10:53:36.893Z,948
2018-11-10T10:54:45.531Z,1024
2018-11-10T10:55:54.505Z,1136
2018-11-10T10:57:03.542Z,1196
2018-11-10T10:58:12.156Z,1320
2018-11-10T10:59:20.791Z,1412
2018-11-10T11:00:29.435Z,1468
2018-11-10T11:01:38.343Z,1440
2018-11-10T11:02:47.101Z,1540
2018-11-10T11:03:55.626Z,1824
2018-11-10T11:05:04.270Z,2040
2018-11-10T11:06:12.909Z,2188
2018-11-10T11:07:21.551Z,2412
2018-11-10T11:08:30.198Z,2696
2018-11-10T11:09:38.867Z,2944
2018-11-10T11:10:47.488Z,3092
2018-11-10T11:11:56.125Z,2956
2018-11-10T11:13:05.066Z,2700
2018-11-10T11:14:13.713Z,2740
2018-11-10T11:15:22.779Z,2880
2018-11-10T11:16:31.350Z,2920
2018-11-10T11:17:40.259Z,2832
2018-11-10T11:18:48.899Z,2652
2018-11-10T11:19:58.754Z,2400
2018-11-10T11:21:07.389Z,2284
2018-11-10T11:22:16.302Z,2376
2018-11-10T11:23:25.248Z,2644
2018-11-10T11:24:34.029Z,3052
2018-11-10T11:25:42.673Z,3600
2018-11-10T11:26:51.310Z,4056
2018-11-10T11:27:59.961Z,4204
2018-11-10T11:29:08.661Z,4112
2018-11-10T11:30:17.271Z,4064
2018-11-10T11:31:26.286Z,3744
2018-11-10T11:32:34.973Z,3496
2018-11-10T11:33:43.627Z,3356
2018-11-10T11:34:52.926Z,3412
2018-11-10T11:36:02.048Z,3324
2018-11-10T11:37:10.694Z,3372
2018-11-10T11:38:20.001Z,3344
2018-11-10T11:39:28.872Z,3220
2018-11-10T11:40:37.559Z,3080
2018-11-10T11:41:46.370Z,2924
2018-11-10T11:42:54.867Z,2704
2018-11-10T11:44:03.782Z,2480
2018-11-10T11:45:12.420Z,2360
2018-11-10T11:46:21.064Z,2220
2018-11-10T11:47:29.704Z,2072
2018-11-10T11:48:38.448Z,2016
2018-11-10T11:49:47.136Z,1984
2018-11-10T11:50:56.127Z,1880
2018-11-10T11:52:04.781Z,1776
2018-11-10T11:53:13.430Z,1676
2018-11-10T11:54:22.069Z,1680
2018-11-10T11:55:30.976Z,1740
2018-11-10T11:56:39.619Z,1708
2018-11-10T11:57:48.326Z,1776
2018-11-10T11:58:57.786Z,1928
2018-11-10T12:00:06.995Z,2004
2018-11-10T12:01:15.670Z,1984
2018-11-10T12:02:24.307Z,1960
2018-11-10T12:03:32.955Z,1988
2018-11-10T12:04:41.828Z,2056
2018-11-10T12:05:50.298Z,2140
2018-11-10T12:06:58.936Z,2200
2018-11-10T12:08:07.585Z,2284
2018-11-10T12:09:16.487Z,2384
2018-11-10T12:10:25.127Z,2484
2018-11-10T12:11:33.765Z,2572
2018-11-10T12:12:42.417Z,2624
2018-11-10T12:13:51.317Z,2664
2018-11-10T12:15:00.065Z,2700
2018-11-10T12:16:09.055Z,2724
2018-11-10T12:17:17.700Z,2724
2018-11-10T12:18:26.608Z,2736
2018-11-10T12:19:35.416Z,2764
2018-11-10T12:20:44.612Z,2824
2018-11-10T12:21:53.242Z,2912
2018-11-10T12:23:01.875Z,3012
2018-11-10T12:24:10.517Z,3068
2018-11-10T12:25:19.695Z,3060
2018-11-10T12:26:28.333Z,3016
2018-11-10T12:27:36.985Z,2940
2018-11-10T12:28:45.634Z,2824
2018-11-10T12:29:54.549Z,2652
2018-11-10T12:31:03.449Z,2500
2018-11-10T12:32:12.097Z,2372
2018-11-10T12:33:20.739Z,2260
2018-11-10T12:34:29.391Z,2188
2018-11-10T12:35:38.032Z,2120
2018-11-10T12:36:46.676Z,2068
2018-11-10T12:37:55.314Z,2008
2018-11-10T12:39:03.957Z,1952
2018-11-10T12:40:12.609Z,1908
2018-11-10T12:41:21.292Z,1880
2018-11-10T12:42:29.939Z,1852
2018-11-10T12:43:39.143Z,1836
2018-11-10T12:44:47.793Z,1800
2018-11-10T12:45:56.439Z,1760
2018-11-10T12:47:05.105Z,1712
2018-11-10T12:48:13.720Z,1664
2018-11-10T12:49:22.432Z,1600
2018-11-10T12:50:31.072Z,1544
2018-11-10T12:51:39.938Z,1492
2018-11-10T12:52:48.623Z,1436
2018-11-10T12:53:57.564Z,1368
2018-11-10T12:55:06.588Z,1308
2018-11-10T12:56:15.236Z,1272
2018-11-10T12:57:24.156Z,1248
2018-11-10T12:58:32.808Z,1244
2018-11-10T12:59:42.220Z,1260
2018-11-10T13:00:50.911Z,1276
2018-11-10T13:01:59.857Z,1296
2018-11-10T13:03:09.502Z,1316
2018-11-10T13:04:18.477Z,1332
2018-11-10T13:05:27.475Z,1340
2018-11-10T13:06:36.163Z,1328
2018-11-10T13:07:44.795Z,1284
2018-11-10T13:08:53.441Z,1232
2018-11-10T13:10:02.084Z,1208
2018-11-10T13:11:10.769Z,1204
2018-11-10T13:12:19.383Z,1224
2018-11-10T13:13:28.021Z,1260
2018-11-10T13:14:36.663Z,1292
2018-11-10T13:15:45.309Z,1308
2018-11-10T13:16:54.295Z,1288
2018-11-10T13:18:02.935Z,1244
2018-11-10T13:19:11.843Z,1172
2018-11-10T13:20:20.748Z,1088
2018-11-10T13:21:29.678Z,1020
2018-11-10T13:22:38.315Z,980
2018-11-10T13:23:46.963Z,964
2018-11-10T13:24:55.601Z,964
2018-11-10T13:26:04.251Z,968
2018-11-10T13:27:12.895Z,980
2018-11-10T13:28:21.540Z,1000
2018-11-10T13:29:30.695Z,1024
2018-11-10T13:30:39.352Z,1048
2018-11-10T13:31:48.369Z,1072
2018-11-10T13:32:56.976Z,1096
2018-11-10T13:34:05.623Z,1108
2018-11-10T13:35:14.520Z,1124
2018-11-10T13:36:23.171Z,1140
2018-11-10T13:37:32.075Z,1140
2018-11-10T13:38:40.738Z,1132
2018-11-10T13:39:49.368Z,1128
2018-11-10T13:40:58.015Z,1120
2018-11-10T13:42:06.656Z,1104
2018-11-10T13:43:15.370Z,1084
2018-11-10T13:44:24.808Z,1068
2018-11-10T13:45:33.373Z,1056
2018-11-10T13:46:42.292Z,1044
2018-11-10T13:47:50.935Z,1032
2018-11-10T13:48:59.837Z,1020
2018-11-10T13:50:08.480Z,1016
2018-11-10T13:51:17.569Z,1028
2018-11-10T13:52:26.471Z,1068
2018-11-10T13:53:34.934Z,1116
2018-11-10T13:54:43.580Z,1180
2018-11-10T13:55:52.295Z,1244
2018-11-10T13:57:00.871Z,1304
2018-11-10T13:58:09.512Z,1356
2018-11-10T13:59:18.209Z,1388
2018-11-10T14:00:26.800Z,1404
2018-11-10T14:01:35.727Z,1400
2018-11-10T14:02:44.635Z,1376
2018-11-10T14:03:53.281Z,1344
2018-11-10T14:05:01.921Z,1308
2018-11-10T14:06:10.569Z,1284
2018-11-10T14:07:19.475Z,1260
2018-11-10T14:08:28.115Z,1252
2018-11-10T14:09:36.756Z,1248
2018-11-10T14:10:45.398Z,1236
2018-11-10T14:11:54.057Z,1208
2018-11-10T14:13:02.690Z,1172
2018-11-10T14:14:11.336Z,1128
2018-11-10T14:15:19.975Z,1080
2018-11-10T14:16:28.620Z,1048
2018-11-10T14:17:37.270Z,1044
2018-11-10T14:18:45.910Z,1040
2018-11-10T14:19:54.548Z,1020
2018-11-10T14:21:03.196Z,980
2018-11-10T14:22:11.835Z,940
2018-11-10T14:23:20.479Z,900
2018-11-10T14:24:29.121Z,864
2018-11-10T14:25:38.034Z,832
2018-11-10T14:26:46.676Z,804
2018-11-10T14:27:55.321Z,784
2018-11-10T14:29:03.967Z,772
2018-11-10T14:30:12.649Z,784
2018-11-10T14:31:21.403Z,804
2018-11-10T14:32:30.261Z,808
2018-11-10T14:33:39.565Z,788
2018-11-10T14:34:48.559Z,748
2018-11-10T14:35:57.231Z,692
2018-11-10T14:37:06.182Z,632
2018-11-10T14:38:15.141Z,588
2018-11-10T14:39:23.872Z,556
2018-11-10T14:40:33.046Z,540
2018-11-10T14:41:41.688Z,540
2018-11-10T14:42:50.605Z,556
2018-11-10T14:43:59.252Z,576
2018-11-10T14:45:07.883Z,592
2018-11-10T14:46:16.526Z,604
2018-11-10T14:47:25.430Z,604
2018-11-10T14:48:34.085Z,596
2018-11-10T14:49:42.986Z,588
2018-11-10T14:50:51.639Z,580
2018-11-10T14:52:00.536Z,568
2018-11-10T14:53:09.454Z,552
2018-11-10T14:54:17.823Z,540
2018-11-10T14:55:26.470Z,520
2018-11-10T14:56:35.110Z,508
2018-11-10T14:57:43.760Z,488
2018-11-10T14:58:52.779Z,472
2018-11-10T15:00:01.425Z,468
2018-11-10T15:01:10.058Z,468
2018-11-10T15:02:18.704Z,472
2018-11-10T15:03:27.351Z,472
2018-11-10T15:04:35.997Z,460
2018-11-10T15:05:44.712Z,448
2018-11-10T15:06:53.689Z,424
2018-11-10T15:08:02.611Z,392
2018-11-10T15:09:11.247Z,356
2018-11-10T15:10:19.899Z,324
2018-11-10T15:11:28.618Z,300
2018-11-10T15:12:37.189Z,284
2018-11-10T15:13:46.089Z,268
2018-11-10T15:14:55.005Z,260
2018-11-10T15:16:03.639Z,248
2018-11-10T15:17:12.284Z,240
2018-11-10T15:18:21.064Z,228
2018-11-10T15:19:30.029Z,220
2018-11-10T15:20:38.668Z,216
2018-11-10T15:21:47.307Z,208
2018-11-10T15:22:55.946Z,200
2018-11-10T15:24:04.587Z,188
2018-11-10T15:25:14.125Z,168
2018-11-10T15:26:22.964Z,152
2018-11-10T15:27:31.878Z,136
2018-11-10T15:28:40.518Z,124
2018-11-10T15:29:49.169Z,112
2018-11-10T15:30:57.808Z,104
2018-11-10T15:32:06.455Z,96
2018-11-10T15:33:15.102Z,96
2018-11-10T15:34:24.002Z,88
2018-11-10T15:35:32.648Z,84
2018-11-10T15:36:41.289Z,76
2018-11-10T15:37:49.942Z,72
2018-11-10T15:38:58.585Z,68
2018-11-10T15:40:07.747Z,64
2018-11-10T15:41:16.654Z,60
2018-11-10T15:42:25.564Z,52
2018-11-10T15:43:34.217Z,48
2018-11-10T15:44:42.851Z,44
2018-11-10T15:45:51.499Z,40
2018-11-10T15:47:00.133Z,28
2018-11-10T15:48:08.786Z,24
2018-11-10T15:49:17.423Z,20
2018-11-10T15:50:26.167Z,20
2018-11-10T15:51:34.704Z,12
2018-11-10T15:52:43.360Z,12
2018-11-10T15:53:52.005Z,12
2018-11-10T15:55:00.910Z,8
2018-11-10T15:56:09.546Z,8
2018-11-10T15:57:18.669Z,4
2018-11-10T15:58:27.254Z,8
2018-11-10T15:59:35.897Z,8
2018-11-10T16:00:44.543Z,8
2018-11-10T16:01:53.176Z,8
2018-11-10T16:03:01.824Z,4
2018-11-10T16:04:10.461Z,0
2018-11-10T16:05:19.114Z,0
2018-11-10T16:06:27.746Z,0